PWSweather.com
Personal Weather Stations
Station Observations
DEKREUPEL
Wsv De Kreupel, AndijkNL 1619 JV

Wsv De KreupelAndijkNL 1619 JV

Lat: 52.7417364, Lon: 5.1809356

Elevation: 33

Station Type: Rainwise MKiii LR

High Low Average
Temperature 56.7°F13.7°C 45.1°F7.3°C 51.7°F10.9°C
Dew Point 84.2°F29.0°C 71.2°F21.8°C 78.5°F25.8°C
Winds 32.6 mph 52.5 kmh Calm Calm 14.0 mph W22.5 kmh W
Wind Gusts 38.2 mph61.5 kmh -- 16.0 mph25.7 kmh
Humidity - - -
Pressure 30.18 in1022.0 mb 29.93 in1013.5 mb -
Precipitation 0.10 in2.5 mm - -
Hour Temp Dew Point Humidity Winds Wind Gusts Pressure Precip Precip Rate Daily Precip Total
12:00 AM 56.7°F13.7°C 84.2°F29.0°C - 4.8 mph WSW7.7 kmh WSW 6.2 mph10.0 kmh 30.18 in1022.0 mb 0.00 in0.0 mm 0.00 in0.0 mm 0.00 in0.0 mm
12:04 AM 56.7°F13.7°C 84.2°F29.0°C - 5.4 mph WSW8.7 kmh WSW 6.7 mph10.8 kmh 30.18 in1022.0 mb 0.00 in0.0 mm 0.00 in0.0 mm 0.00 in0.0 mm
12:09 AM 56.7°F13.7°C 84.2°F29.0°C - 5.9 mph WSW9.5 kmh WSW 6.9 mph11.1 kmh 30.18 in1022.0 mb 0.00 in0.0 mm 0.00 in0.0 mm 0.00 in0.0 mm
12:14 AM 56.6°F13.7°C 84.1°F28.9°C - 5.8 mph WSW9.3 kmh WSW 6.7 mph10.8 kmh 30.18 in1022.0 mb 0.00 in0.0 mm 0.00 in0.0 mm 0.00 in0.0 mm
12:19 AM 56.5°F13.6°C 84.0°F28.9°C - 6.0 mph WSW9.7 kmh WSW 6.8 mph10.9 kmh 30.18 in1022.0 mb 0.00 in0.0 mm 0.00 in0.0 mm 0.00 in0.0 mm
12:24 AM 56.3°F13.5°C 83.8°F28.8°C - 5.4 mph WSW8.7 kmh WSW 6.2 mph10.0 kmh 30.18 in1022.0 mb 0.00 in0.0 mm 0.00 in0.0 mm 0.00 in0.0 mm
12:29 AM 56.2°F13.4°C 83.7°F28.7°C - 4.9 mph W7.9 kmh W 6.0 mph9.7 kmh 30.18 in1022.0 mb 0.00 in0.0 mm 0.00 in0.0 mm 0.00 in0.0 mm
12:34 AM 56.2°F13.4°C 83.7°F28.7°C - 5.7 mph W9.2 kmh W 6.4 mph10.3 kmh 30.17 in1021.7 mb 0.00 in0.0 mm 0.00 in0.0 mm 0.00 in0.0 mm
12:39 AM 56.1°F13.4°C 83.5°F28.6°C - 5.7 mph WSW9.2 kmh WSW 6.5 mph10.5 kmh 30.17 in1021.7 mb 0.00 in0.0 mm 0.00 in0.0 mm 0.00 in0.0 mm
12:44 AM 56.0°F13.3°C 83.4°F28.6°C - 5.4 mph W8.7 kmh W 6.1 mph9.8 kmh 30.17 in1021.7 mb 0.00 in0.0 mm 0.00 in0.0 mm 0.00 in0.0 mm
12:49 AM 55.8°F13.2°C 83.1°F28.4°C - 6.4 mph WSW10.3 kmh WSW 7.3 mph11.7 kmh 30.17 in1021.7 mb 0.00 in0.0 mm 0.00 in0.0 mm 0.00 in0.0 mm
12:54 AM 55.7°F13.2°C 83.1°F28.4°C - 5.9 mph WSW9.5 kmh WSW 7.4 mph11.9 kmh 30.16 in1021.3 mb 0.00 in0.0 mm 0.00 in0.0 mm 0.00 in0.0 mm
12:59 AM 55.6°F13.1°C 83.0°F28.3°C - 6.1 mph SW9.8 kmh SW 7.3 mph11.7 kmh 30.16 in1021.3 mb 0.00 in0.0 mm 0.00 in0.0 mm 0.00 in0.0 mm
01:04 AM 55.5°F13.1°C 82.9°F28.3°C - 6.5 mph SW10.5 kmh SW 8.0 mph12.9 kmh 30.16 in1021.3 mb 0.00 in0.0 mm 0.00 in0.0 mm 0.00 in0.0 mm
01:09 AM 55.3°F12.9°C 82.6°F28.1°C - 7.0 mph SW11.3 kmh SW 7.9 mph12.7 kmh 30.16 in1021.3 mb 0.00 in0.0 mm 0.00 in0.0 mm 0.00 in0.0 mm
01:14 AM 55.2°F12.9°C 82.5°F28.1°C - 7.3 mph WSW11.7 kmh WSW 8.7 mph14.0 kmh 30.15 in1021.0 mb 0.00 in0.0 mm 0.00 in0.0 mm 0.00 in0.0 mm
01:19 AM 55.0°F12.8°C 82.3°F27.9°C - 6.8 mph WSW10.9 kmh WSW 8.7 mph14.0 kmh 30.15 in1021.0 mb 0.00 in0.0 mm 0.00 in0.0 mm 0.00 in0.0 mm
01:24 AM 54.8°F12.7°C 82.1°F27.8°C - 7.0 mph WSW11.3 kmh WSW 9.7 mph15.6 kmh 30.15 in1021.0 mb 0.00 in0.0 mm 0.00 in0.0 mm 0.00 in0.0 mm
01:29 AM 54.7°F12.6°C 82.0°F27.8°C - 6.0 mph WSW9.7 kmh WSW 8.6 mph13.8 kmh 30.15 in1021.0 mb 0.00 in0.0 mm 0.00 in0.0 mm 0.00 in0.0 mm
01:34 AM 54.7°F12.6°C 82.0°F27.8°C - 7.3 mph WSW11.7 kmh WSW 9.8 mph15.8 kmh 30.15 in1021.0 mb 0.00 in0.0 mm 0.00 in0.0 mm 0.00 in0.0 mm
01:39 AM 54.7°F12.6°C 82.0°F27.8°C - 7.9 mph WSW12.7 kmh WSW 9.7 mph15.6 kmh 30.15 in1021.0 mb 0.00 in0.0 mm 0.00 in0.0 mm 0.00 in0.0 mm
01:44 AM 54.6°F12.6°C 81.7°F27.6°C - 7.3 mph WSW11.7 kmh WSW 10.2 mph16.4 kmh 30.15 in1021.0 mb 0.00 in0.0 mm 0.00 in0.0 mm 0.00 in0.0 mm
01:49 AM 54.5°F12.5°C 81.7°F27.6°C - 7.1 mph WSW11.4 kmh WSW 9.1 mph14.6 kmh 30.14 in1020.7 mb 0.00 in0.0 mm 0.00 in0.0 mm 0.00 in0.0 mm
01:54 AM 54.5°F12.5°C 81.7°F27.6°C - 6.2 mph WSW10.0 kmh WSW 8.7 mph14.0 kmh 30.14 in1020.7 mb 0.00 in0.0 mm 0.00 in0.0 mm 0.00 in0.0 mm
01:59 AM 54.3°F12.4°C 81.5°F27.5°C - 7.1 mph WSW11.4 kmh WSW 8.9 mph14.3 kmh 30.14 in1020.7 mb 0.00 in0.0 mm 0.00 in0.0 mm 0.00 in0.0 mm
02:04 AM 54.2°F12.3°C 81.4°F27.4°C - 8.4 mph WSW13.5 kmh WSW 11.2 mph18.0 kmh 30.14 in1020.7 mb 0.00 in0.0 mm 0.00 in0.0 mm 0.00 in0.0 mm
02:09 AM 54.1°F12.3°C 81.3°F27.4°C - 7.5 mph WSW12.1 kmh WSW 9.2 mph14.8 kmh 30.14 in1020.7 mb 0.00 in0.0 mm 0.00 in0.0 mm 0.00 in0.0 mm
02:14 AM 53.9°F12.2°C 81.1°F27.3°C - 6.9 mph WSW11.1 kmh WSW 8.6 mph13.8 kmh 30.14 in1020.7 mb 0.00 in0.0 mm 0.00 in0.0 mm 0.00 in0.0 mm
02:19 AM 53.7°F12.1°C 80.8°F27.1°C - 6.5 mph WSW10.5 kmh WSW 8.0 mph12.9 kmh 30.14 in1020.7 mb 0.00 in0.0 mm 0.00 in0.0 mm 0.00 in0.0 mm
02:24 AM 53.6°F12.0°C 80.7°F27.1°C - 6.6 mph WSW10.6 kmh WSW 8.6 mph13.8 kmh 30.14 in1020.7 mb 0.00 in0.0 mm 0.00 in0.0 mm 0.00 in0.0 mm
02:29 AM 53.5°F11.9°C 80.6°F27.0°C - 6.9 mph WSW11.1 kmh WSW 8.2 mph13.2 kmh 30.14 in1020.7 mb 0.00 in0.0 mm 0.00 in0.0 mm 0.00 in0.0 mm
02:34 AM 53.3°F11.8°C 80.4°F26.9°C - 6.5 mph WSW10.5 kmh WSW 8.3 mph13.4 kmh 30.14 in1020.7 mb 0.00 in0.0 mm 0.00 in0.0 mm 0.00 in0.0 mm
02:39 AM 53.2°F11.8°C 80.3°F26.8°C - 6.7 mph WSW10.8 kmh WSW 8.8 mph14.2 kmh 30.13 in1020.3 mb 0.00 in0.0 mm 0.00 in0.0 mm 0.00 in0.0 mm
02:44 AM 53.1°F11.7°C 80.2°F26.8°C - 7.0 mph WSW11.3 kmh WSW 9.0 mph14.5 kmh 30.13 in1020.3 mb 0.00 in0.0 mm 0.00 in0.0 mm 0.00 in0.0 mm
02:49 AM 53.1°F11.7°C 80.1°F26.7°C - 6.7 mph SW10.8 kmh SW 8.7 mph14.0 kmh 30.13 in1020.3 mb 0.00 in0.0 mm 0.00 in0.0 mm 0.00 in0.0 mm
02:54 AM 53.0°F11.7°C 80.1°F26.7°C - 7.6 mph SW12.2 kmh SW 9.6 mph15.4 kmh 30.12 in1020.0 mb 0.00 in0.0 mm 0.00 in0.0 mm 0.00 in0.0 mm
02:59 AM 53.0°F11.7°C 80.1°F26.7°C - 7.2 mph WSW11.6 kmh WSW 9.0 mph14.5 kmh 30.12 in1020.0 mb 0.00 in0.0 mm 0.00 in0.0 mm 0.00 in0.0 mm
03:04 AM 53.0°F11.7°C 80.1°F26.7°C - 7.4 mph WSW11.9 kmh WSW 10.0 mph16.1 kmh 30.12 in1020.0 mb 0.00 in0.0 mm 0.00 in0.0 mm 0.00 in0.0 mm
03:09 AM 53.0°F11.7°C 79.9°F26.6°C - 6.2 mph SW10.0 kmh SW 8.4 mph13.5 kmh 30.11 in1019.6 mb 0.00 in0.0 mm 0.00 in0.0 mm 0.00 in0.0 mm
03:14 AM 53.0°F11.7°C 79.9°F26.6°C - 6.2 mph SW10.0 kmh SW 7.8 mph12.6 kmh 30.11 in1019.6 mb 0.00 in0.0 mm 0.00 in0.0 mm 0.00 in0.0 mm
03:19 AM 53.0°F11.7°C 79.9°F26.6°C - 6.5 mph SW10.5 kmh SW 8.2 mph13.2 kmh 30.11 in1019.6 mb 0.00 in0.0 mm 0.00 in0.0 mm 0.00 in0.0 mm
03:24 AM 53.0°F11.7°C 80.1°F26.7°C - 6.0 mph SW9.7 kmh SW 8.1 mph13.0 kmh 30.11 in1019.6 mb 0.00 in0.0 mm 0.00 in0.0 mm 0.00 in0.0 mm
03:29 AM 53.1°F11.7°C 80.2°F26.8°C - 5.3 mph SW8.5 kmh SW 7.6 mph12.2 kmh 30.11 in1019.6 mb 0.00 in0.0 mm 0.00 in0.0 mm 0.00 in0.0 mm
03:34 AM 53.1°F11.7°C 80.1°F26.7°C - 6.0 mph SW9.7 kmh SW 8.0 mph12.9 kmh 30.10 in1019.3 mb 0.00 in0.0 mm 0.00 in0.0 mm 0.00 in0.0 mm
03:39 AM 53.2°F11.8°C 80.2°F26.8°C - 5.7 mph SW9.2 kmh SW 7.7 mph12.4 kmh 30.10 in1019.3 mb 0.00 in0.0 mm 0.00 in0.0 mm 0.00 in0.0 mm
03:44 AM 53.2°F11.8°C 80.3°F26.8°C - 5.9 mph SW9.5 kmh SW 8.0 mph12.9 kmh 30.09 in1019.0 mb 0.00 in0.0 mm 0.00 in0.0 mm 0.00 in0.0 mm
03:49 AM 53.2°F11.8°C 80.3°F26.8°C - 5.1 mph WSW8.2 kmh WSW 7.3 mph11.7 kmh 30.09 in1019.0 mb 0.00 in0.0 mm 0.00 in0.0 mm 0.00 in0.0 mm
03:54 AM 53.3°F11.8°C 80.3°F26.8°C - 4.6 mph WSW7.4 kmh WSW 6.9 mph11.1 kmh 30.10 in1019.3 mb 0.00 in0.0 mm 0.00 in0.0 mm 0.00 in0.0 mm
03:59 AM 53.3°F11.8°C 80.3°F26.8°C - 6.4 mph WSW10.3 kmh WSW 8.6 mph13.8 kmh 30.09 in1019.0 mb 0.00 in0.0 mm 0.00 in0.0 mm 0.00 in0.0 mm
04:04 AM 53.3°F11.8°C 80.4°F26.9°C - 6.1 mph WSW9.8 kmh WSW 8.4 mph13.5 kmh 30.09 in1019.0 mb 0.00 in0.0 mm 0.00 in0.0 mm 0.00 in0.0 mm
04:09 AM 53.5°F11.9°C 80.6°F27.0°C - 6.6 mph WSW10.6 kmh WSW 8.3 mph13.4 kmh 30.09 in1019.0 mb 0.00 in0.0 mm 0.00 in0.0 mm 0.00 in0.0 mm
04:14 AM 53.5°F11.9°C 80.5°F26.9°C - 7.0 mph WSW11.3 kmh WSW 9.1 mph14.6 kmh 30.09 in1019.0 mb 0.00 in0.0 mm 0.00 in0.0 mm 0.00 in0.0 mm
04:19 AM 53.4°F11.9°C 80.4°F26.9°C - 6.4 mph SW10.3 kmh SW 9.1 mph14.6 kmh 30.08 in1018.6 mb 0.00 in0.0 mm 0.00 in0.0 mm 0.00 in0.0 mm
04:24 AM 53.3°F11.8°C 80.4°F26.9°C - 6.4 mph SW10.3 kmh SW 8.2 mph13.2 kmh 30.08 in1018.6 mb 0.00 in0.0 mm 0.00 in0.0 mm 0.00 in0.0 mm
04:29 AM 53.2°F11.8°C 80.3°F26.8°C - 5.4 mph WSW8.7 kmh WSW 7.0 mph11.3 kmh 30.07 in1018.3 mb 0.00 in0.0 mm 0.00 in0.0 mm 0.00 in0.0 mm
04:34 AM 53.1°F11.7°C 80.2°F26.8°C - 6.6 mph WSW10.6 kmh WSW 8.0 mph12.9 kmh 30.07 in1018.3 mb 0.00 in0.0 mm 0.00 in0.0 mm 0.00 in0.0 mm
04:39 AM 53.0°F11.7°C 80.1°F26.7°C - 7.0 mph SW11.3 kmh SW 9.0 mph14.5 kmh 30.07 in1018.3 mb 0.00 in0.0 mm 0.00 in0.0 mm 0.00 in0.0 mm
04:44 AM 52.9°F11.6°C 79.8°F26.6°C - 6.8 mph WSW10.9 kmh WSW 9.2 mph14.8 kmh 30.07 in1018.3 mb 0.00 in0.0 mm 0.00 in0.0 mm 0.00 in0.0 mm
04:49 AM 53.0°F11.7°C 80.1°F26.7°C - 7.9 mph WSW12.7 kmh WSW 10.0 mph16.1 kmh 30.06 in1017.9 mb 0.00 in0.0 mm 0.00 in0.0 mm 0.00 in0.0 mm
04:54 AM 53.2°F11.8°C 80.3°F26.8°C - 8.2 mph WSW13.2 kmh WSW 10.2 mph16.4 kmh 30.07 in1018.3 mb 0.00 in0.0 mm 0.00 in0.0 mm 0.00 in0.0 mm
04:59 AM 53.3°F11.8°C 80.3°F26.8°C - 8.5 mph WSW13.7 kmh WSW 10.4 mph16.7 kmh 30.06 in1017.9 mb 0.00 in0.0 mm 0.00 in0.0 mm 0.00 in0.0 mm
05:04 AM 53.5°F11.9°C 80.6°F27.0°C - 8.7 mph WSW14.0 kmh WSW 11.0 mph17.7 kmh 30.06 in1017.9 mb 0.00 in0.0 mm 0.00 in0.0 mm 0.00 in0.0 mm
05:09 AM 53.6°F12.0°C 80.7°F27.1°C - 9.5 mph WSW15.3 kmh WSW 12.9 mph20.8 kmh 30.06 in1017.9 mb 0.00 in0.0 mm 0.00 in0.0 mm 0.00 in0.0 mm
05:14 AM 53.6°F12.0°C 80.7°F27.1°C - 9.2 mph W14.8 kmh W 13.1 mph21.1 kmh 30.05 in1017.6 mb 0.00 in0.0 mm 0.00 in0.0 mm 0.00 in0.0 mm
05:19 AM 53.7°F12.1°C 80.7°F27.1°C - 10.2 mph WSW16.4 kmh WSW 12.8 mph20.6 kmh 30.05 in1017.6 mb 0.00 in0.0 mm 0.00 in0.0 mm 0.00 in0.0 mm
05:24 AM 53.6°F12.0°C 80.7°F27.1°C - 8.4 mph W13.5 kmh W 13.2 mph21.2 kmh 30.05 in1017.6 mb 0.00 in0.0 mm 0.00 in0.0 mm 0.00 in0.0 mm
05:29 AM 53.6°F12.0°C 80.6°F27.0°C - 9.6 mph W15.4 kmh W 12.6 mph20.3 kmh 30.04 in1017.3 mb 0.00 in0.0 mm 0.00 in0.0 mm 0.00 in0.0 mm
05:34 AM 53.6°F12.0°C 80.6°F27.0°C - 9.2 mph W14.8 kmh W 11.6 mph18.7 kmh 30.04 in1017.3 mb 0.00 in0.0 mm 0.00 in0.0 mm 0.00 in0.0 mm
05:39 AM 53.6°F12.0°C 80.7°F27.1°C - 9.6 mph W15.4 kmh W 11.4 mph18.3 kmh 30.05 in1017.6 mb 0.00 in0.0 mm 0.00 in0.0 mm 0.00 in0.0 mm
05:44 AM 53.6°F12.0°C 80.7°F27.1°C - 9.7 mph W15.6 kmh W 12.5 mph20.1 kmh 30.05 in1017.6 mb 0.00 in0.0 mm 0.00 in0.0 mm 0.00 in0.0 mm
05:49 AM 53.6°F12.0°C 80.6°F27.0°C - 8.9 mph W14.3 kmh W 11.0 mph17.7 kmh 30.05 in1017.6 mb 0.00 in0.0 mm 0.00 in0.0 mm 0.00 in0.0 mm
05:54 AM 53.5°F11.9°C 80.6°F27.0°C - 9.2 mph W14.8 kmh W 11.8 mph19.0 kmh 30.04 in1017.3 mb 0.00 in0.0 mm 0.00 in0.0 mm 0.00 in0.0 mm
05:59 AM 53.5°F11.9°C 80.6°F27.0°C - 10.6 mph W17.1 kmh W 13.7 mph22.0 kmh 30.04 in1017.3 mb 0.00 in0.0 mm 0.00 in0.0 mm 0.00 in0.0 mm
06:04 AM 53.6°F12.0°C 80.7°F27.1°C - 10.2 mph W16.4 kmh W 12.8 mph20.6 kmh 30.04 in1017.3 mb 0.00 in0.0 mm 0.00 in0.0 mm 0.00 in0.0 mm
06:09 AM 53.6°F12.0°C 80.7°F27.1°C - 9.0 mph W14.5 kmh W 10.9 mph17.5 kmh 30.04 in1017.3 mb 0.00 in0.0 mm 0.00 in0.0 mm 0.00 in0.0 mm
06:14 AM 53.6°F12.0°C 80.7°F27.1°C - 10.0 mph W16.1 kmh W 12.9 mph20.8 kmh 30.04 in1017.3 mb 0.00 in0.0 mm 0.00 in0.0 mm 0.00 in0.0 mm
06:19 AM 53.7°F12.1°C 80.8°F27.1°C - 11.6 mph W18.7 kmh W 13.9 mph22.4 kmh 30.04 in1017.3 mb 0.00 in0.0 mm 0.00 in0.0 mm 0.00 in0.0 mm
06:24 AM 53.7°F12.1°C 80.8°F27.1°C - 11.5 mph W18.5 kmh W 14.0 mph22.5 kmh 30.03 in1016.9 mb 0.00 in0.0 mm 0.00 in0.0 mm 0.00 in0.0 mm
06:29 AM 53.7°F12.1°C 80.8°F27.1°C - 11.4 mph W18.3 kmh W 14.2 mph22.9 kmh 30.04 in1017.3 mb 0.00 in0.0 mm 0.00 in0.0 mm 0.00 in0.0 mm
06:34 AM 53.7°F12.1°C 80.8°F27.1°C - 11.2 mph W18.0 kmh W 14.2 mph22.9 kmh 30.03 in1016.9 mb 0.00 in0.0 mm 0.00 in0.0 mm 0.00 in0.0 mm
06:39 AM 53.6°F12.0°C 80.7°F27.1°C - 11.1 mph W17.9 kmh W 13.8 mph22.2 kmh 30.03 in1016.9 mb 0.00 in0.0 mm 0.00 in0.0 mm 0.00 in0.0 mm
06:44 AM 53.6°F12.0°C 80.7°F27.1°C - 11.5 mph WSW18.5 kmh WSW 14.3 mph23.0 kmh 30.02 in1016.6 mb 0.00 in0.0 mm 0.00 in0.0 mm 0.00 in0.0 mm
06:49 AM 53.6°F12.0°C 80.7°F27.1°C - 11.6 mph W18.7 kmh W 13.9 mph22.4 kmh 30.02 in1016.6 mb 0.00 in0.0 mm 0.00 in0.0 mm 0.00 in0.0 mm
06:54 AM 53.5°F11.9°C 80.6°F27.0°C - 12.9 mph WSW20.8 kmh WSW 16.0 mph25.7 kmh 30.02 in1016.6 mb 0.00 in0.0 mm 0.00 in0.0 mm 0.00 in0.0 mm
06:59 AM 53.3°F11.8°C 80.4°F26.9°C - 13.8 mph WSW22.2 kmh WSW 18.3 mph29.5 kmh 30.01 in1016.3 mb 0.00 in0.0 mm 0.00 in0.0 mm 0.00 in0.0 mm
07:04 AM 53.3°F11.8°C 80.4°F26.9°C - 14.0 mph W22.5 kmh W 17.9 mph28.8 kmh 30.01 in1016.3 mb 0.00 in0.0 mm 0.00 in0.0 mm 0.00 in0.0 mm
07:09 AM 53.3°F11.8°C 80.3°F26.8°C - 13.5 mph WSW21.7 kmh WSW 16.9 mph27.2 kmh 30.01 in1016.3 mb 0.00 in0.0 mm 0.00 in0.0 mm 0.00 in0.0 mm
07:14 AM 53.2°F11.8°C 80.3°F26.8°C - 15.7 mph W25.3 kmh W 20.2 mph32.5 kmh 30.01 in1016.3 mb 0.00 in0.0 mm 0.00 in0.0 mm 0.00 in0.0 mm
07:19 AM 53.0°F11.7°C 80.1°F26.7°C - 12.2 mph W19.6 kmh W 15.3 mph24.6 kmh 30.01 in1016.3 mb 0.00 in0.0 mm 0.00 in0.0 mm 0.00 in0.0 mm
07:24 AM 52.8°F11.6°C 79.7°F26.5°C - 15.0 mph W24.1 kmh W 19.2 mph30.9 kmh 30.01 in1016.3 mb 0.00 in0.0 mm 0.00 in0.0 mm 0.00 in0.0 mm
07:29 AM 52.7°F11.5°C 79.6°F26.4°C - 17.5 mph W28.2 kmh W 21.8 mph35.1 kmh 30.01 in1016.3 mb 0.00 in0.0 mm 0.00 in0.0 mm 0.00 in0.0 mm
07:34 AM 52.5°F11.4°C 79.5°F26.4°C - 15.9 mph W25.6 kmh W 20.4 mph32.8 kmh 30.01 in1016.3 mb 0.00 in0.0 mm 0.00 in0.0 mm 0.00 in0.0 mm
07:39 AM 52.3°F11.3°C 79.2°F26.2°C - 15.3 mph W24.6 kmh W 18.8 mph30.3 kmh 30.01 in1016.3 mb 0.00 in0.0 mm 0.00 in0.0 mm 0.00 in0.0 mm
07:44 AM 52.2°F11.2°C 79.0°F26.1°C - 15.5 mph W24.9 kmh W 21.0 mph33.8 kmh 30.00 in1015.9 mb 0.00 in0.0 mm 0.00 in0.0 mm 0.00 in0.0 mm
07:49 AM 52.2°F11.2°C 79.2°F26.2°C - 15.7 mph W25.3 kmh W 19.7 mph31.7 kmh 30.00 in1015.9 mb 0.00 in0.0 mm 0.00 in0.0 mm 0.00 in0.0 mm
07:54 AM 52.2°F11.2°C 79.2°F26.2°C - 16.2 mph W26.1 kmh W 19.3 mph31.1 kmh 30.00 in1015.9 mb 0.00 in0.0 mm 0.00 in0.0 mm 0.00 in0.0 mm
07:59 AM 52.2°F11.2°C 79.2°F26.2°C - 16.7 mph W26.9 kmh W 19.7 mph31.7 kmh 29.99 in1015.6 mb 0.00 in0.0 mm 0.00 in0.0 mm 0.00 in0.0 mm
08:04 AM 52.2°F11.2°C 79.2°F26.2°C - 15.5 mph W24.9 kmh W 18.4 mph29.6 kmh 29.99 in1015.6 mb 0.00 in0.0 mm 0.00 in0.0 mm 0.00 in0.0 mm
08:09 AM 52.1°F11.2°C 78.9°F26.1°C - 16.0 mph W25.7 kmh W 20.4 mph32.8 kmh 29.99 in1015.6 mb 0.00 in0.0 mm 0.00 in0.0 mm 0.00 in0.0 mm
08:14 AM 52.0°F11.1°C 78.9°F26.1°C - 14.7 mph W23.7 kmh W 19.4 mph31.2 kmh 29.99 in1015.6 mb 0.00 in0.0 mm 0.00 in0.0 mm 0.00 in0.0 mm
08:19 AM 52.1°F11.2°C 78.9°F26.1°C - 14.9 mph W24.0 kmh W 19.4 mph31.2 kmh 29.98 in1015.2 mb 0.00 in0.0 mm 0.00 in0.0 mm 0.00 in0.0 mm
08:24 AM 52.1°F11.2°C 78.9°F26.1°C - 15.5 mph W24.9 kmh W 19.1 mph30.7 kmh 29.98 in1015.2 mb 0.00 in0.0 mm 0.00 in0.0 mm 0.00 in0.0 mm
08:29 AM 52.2°F11.2°C 79.0°F26.1°C - 15.6 mph W25.1 kmh W 19.5 mph31.4 kmh 29.98 in1015.2 mb 0.00 in0.0 mm 0.00 in0.0 mm 0.00 in0.0 mm
08:34 AM 52.3°F11.3°C 79.3°F26.3°C - 15.8 mph W25.4 kmh W 19.4 mph31.2 kmh 29.98 in1015.2 mb 0.00 in0.0 mm 0.00 in0.0 mm 0.00 in0.0 mm
08:39 AM 52.2°F11.2°C 79.2°F26.2°C - 16.7 mph W26.9 kmh W 20.0 mph32.2 kmh 29.98 in1015.2 mb 0.00 in0.0 mm 0.00 in0.0 mm 0.00 in0.0 mm
08:44 AM 52.3°F11.3°C 79.2°F26.2°C - 15.1 mph W24.3 kmh W 18.6 mph29.9 kmh 29.98 in1015.2 mb 0.00 in0.0 mm 0.00 in0.0 mm 0.00 in0.0 mm
08:49 AM 52.3°F11.3°C 79.3°F26.3°C - 14.0 mph W22.5 kmh W 17.6 mph28.3 kmh 29.98 in1015.2 mb 0.00 in0.0 mm 0.00 in0.0 mm 0.00 in0.0 mm
08:54 AM 52.4°F11.3°C 79.3°F26.3°C - 7.2 mph W11.6 kmh W 15.9 mph25.6 kmh 29.98 in1015.2 mb 0.00 in0.0 mm 0.00 in0.0 mm 0.00 in0.0 mm
08:59 AM 52.5°F11.4°C 79.4°F26.3°C - 15.3 mph W24.6 kmh W 21.7 mph34.9 kmh 29.98 in1015.2 mb 0.00 in0.0 mm 0.00 in0.0 mm 0.00 in0.0 mm
09:04 AM 52.6°F11.4°C 79.6°F26.4°C - 15.7 mph W25.3 kmh W 19.5 mph31.4 kmh 29.98 in1015.2 mb 0.00 in0.0 mm 0.00 in0.0 mm 0.00 in0.0 mm
09:09 AM 52.6°F11.4°C 79.6°F26.4°C - 15.4 mph W24.8 kmh W 19.8 mph31.9 kmh 29.97 in1014.9 mb 0.00 in0.0 mm 0.00 in0.0 mm 0.00 in0.0 mm
09:14 AM 52.6°F11.4°C 79.5°F26.4°C - 10.3 mph W16.6 kmh W 18.3 mph29.5 kmh 29.97 in1014.9 mb 0.00 in0.0 mm 0.00 in0.0 mm 0.01 in0.3 mm
09:19 AM 52.6°F11.4°C 79.6°F26.4°C - 15.6 mph W25.1 kmh W 18.6 mph29.9 kmh 29.98 in1015.2 mb 0.00 in0.0 mm 0.00 in0.0 mm 0.01 in0.3 mm
09:24 AM 52.6°F11.4°C 79.6°F26.4°C - 20.1 mph W32.3 kmh W 24.9 mph40.1 kmh 29.97 in1014.9 mb 0.00 in0.0 mm 0.00 in0.0 mm 0.01 in0.3 mm
09:29 AM 52.3°F11.3°C 79.2°F26.2°C - 18.2 mph W29.3 kmh W 22.1 mph35.6 kmh 29.97 in1014.9 mb 0.00 in0.0 mm 0.00 in0.0 mm 0.01 in0.3 mm
09:34 AM 52.2°F11.2°C 79.2°F26.2°C - 20.0 mph W32.2 kmh W 25.0 mph40.2 kmh 29.97 in1014.9 mb 0.00 in0.0 mm 0.00 in0.0 mm 0.01 in0.3 mm
09:39 AM 52.2°F11.2°C 79.2°F26.2°C - 17.7 mph W28.5 kmh W 21.5 mph34.6 kmh 29.97 in1014.9 mb 0.00 in0.0 mm 0.00 in0.0 mm 0.01 in0.3 mm
09:44 AM 52.2°F11.2°C 79.0°F26.1°C - 16.9 mph W27.2 kmh W 19.9 mph32.0 kmh 29.98 in1015.2 mb 0.00 in0.0 mm 0.00 in0.0 mm 0.01 in0.3 mm
09:49 AM 52.3°F11.3°C 79.3°F26.3°C - 18.3 mph W29.5 kmh W 22.3 mph35.9 kmh 29.97 in1014.9 mb 0.00 in0.0 mm 0.00 in0.0 mm 0.01 in0.3 mm
09:54 AM 52.6°F11.4°C 79.6°F26.4°C - 17.1 mph W27.5 kmh W 20.9 mph33.6 kmh 29.97 in1014.9 mb 0.00 in0.0 mm 0.00 in0.0 mm 0.01 in0.3 mm
09:59 AM 52.7°F11.5°C 79.7°F26.5°C - 16.5 mph W26.6 kmh W 21.4 mph34.4 kmh 29.97 in1014.9 mb 0.00 in0.0 mm 0.00 in0.0 mm 0.01 in0.3 mm
10:04 AM 52.8°F11.6°C 79.8°F26.6°C - 17.6 mph W28.3 kmh W 21.1 mph34.0 kmh 29.97 in1014.9 mb 0.00 in0.0 mm 0.00 in0.0 mm 0.01 in0.3 mm
10:09 AM 52.9°F11.6°C 79.8°F26.6°C - 16.8 mph W27.0 kmh W 21.2 mph34.1 kmh 29.97 in1014.9 mb 0.00 in0.0 mm 0.00 in0.0 mm 0.01 in0.3 mm
10:14 AM 53.1°F11.7°C 80.2°F26.8°C - 15.6 mph W25.1 kmh W 19.1 mph30.7 kmh 29.97 in1014.9 mb 0.00 in0.0 mm 0.00 in0.0 mm 0.01 in0.3 mm
10:19 AM 53.2°F11.8°C 80.3°F26.8°C - 16.2 mph W26.1 kmh W 19.8 mph31.9 kmh 29.97 in1014.9 mb 0.00 in0.0 mm 0.00 in0.0 mm 0.01 in0.3 mm
10:24 AM 53.3°F11.8°C 80.3°F26.8°C - 16.4 mph W26.4 kmh W 19.9 mph32.0 kmh 29.96 in1014.6 mb 0.00 in0.0 mm 0.00 in0.0 mm 0.01 in0.3 mm
10:29 AM 53.6°F12.0°C 80.6°F27.0°C - 15.3 mph W24.6 kmh W 17.0 mph27.4 kmh 29.96 in1014.6 mb 0.00 in0.0 mm 0.00 in0.0 mm 0.02 in0.5 mm
10:34 AM 53.6°F12.0°C 80.6°F27.0°C - 16.1 mph W25.9 kmh W 16.8 mph27.0 kmh 29.96 in1014.6 mb 0.00 in0.0 mm 0.00 in0.0 mm 0.02 in0.5 mm
10:39 AM 53.6°F12.0°C 80.6°F27.0°C - 12.4 mph W20.0 kmh W 12.4 mph20.0 kmh 29.96 in1014.6 mb 0.00 in0.0 mm 0.00 in0.0 mm 0.02 in0.5 mm
10:44 AM 54.0°F12.2°C 81.2°F27.3°C - 12.2 mph WSW19.6 kmh WSW 14.3 mph23.0 kmh 29.96 in1014.6 mb 0.00 in0.0 mm 0.00 in0.0 mm 0.02 in0.5 mm
10:49 AM 54.2°F12.3°C 81.4°F27.4°C - 14.7 mph W23.7 kmh W 18.8 mph30.3 kmh 29.95 in1014.2 mb 0.00 in0.0 mm 0.00 in0.0 mm 0.02 in0.5 mm
10:54 AM 54.5°F12.5°C 81.7°F27.6°C - 14.3 mph W23.0 kmh W 18.6 mph29.9 kmh 29.95 in1014.2 mb 0.00 in0.0 mm 0.00 in0.0 mm 0.02 in0.5 mm
10:59 AM 54.6°F12.6°C 81.9°F27.7°C - 14.6 mph W23.5 kmh W 18.0 mph29.0 kmh 29.95 in1014.2 mb 0.00 in0.0 mm 0.00 in0.0 mm 0.02 in0.5 mm
11:04 AM 54.6°F12.6°C 81.9°F27.7°C - 14.1 mph W22.7 kmh W 17.3 mph27.8 kmh 29.95 in1014.2 mb 0.00 in0.0 mm 0.00 in0.0 mm 0.02 in0.5 mm
11:09 AM 54.8°F12.7°C 82.1°F27.8°C - 14.5 mph W23.3 kmh W 16.9 mph27.2 kmh 29.95 in1014.2 mb 0.00 in0.0 mm 0.00 in0.0 mm 0.02 in0.5 mm
11:14 AM 55.1°F12.8°C 82.4°F28.0°C - 14.6 mph W23.5 kmh W 18.0 mph29.0 kmh 29.95 in1014.2 mb 0.00 in0.0 mm 0.00 in0.0 mm 0.02 in0.5 mm
11:19 AM 55.3°F12.9°C 82.6°F28.1°C - 14.7 mph W23.7 kmh W 17.7 mph28.5 kmh 29.94 in1013.9 mb 0.00 in0.0 mm 0.00 in0.0 mm 0.02 in0.5 mm
11:24 AM 55.6°F13.1°C 83.0°F28.3°C - 15.2 mph W24.5 kmh W 18.4 mph29.6 kmh 29.94 in1013.9 mb 0.00 in0.0 mm 0.00 in0.0 mm 0.02 in0.5 mm
11:29 AM 55.7°F13.2°C 83.1°F28.4°C - 17.5 mph WNW28.2 kmh WNW 20.4 mph32.8 kmh 29.94 in1013.9 mb 0.00 in0.0 mm 0.00 in0.0 mm 0.02 in0.5 mm
11:34 AM 55.8°F13.2°C 83.1°F28.4°C - 16.4 mph WNW26.4 kmh WNW 20.5 mph33.0 kmh 29.94 in1013.9 mb 0.00 in0.0 mm 0.00 in0.0 mm 0.02 in0.5 mm
11:39 AM 56.0°F13.3°C 83.4°F28.6°C - 16.7 mph W26.9 kmh W 20.0 mph32.2 kmh 29.93 in1013.5 mb 0.00 in0.0 mm 0.00 in0.0 mm 0.02 in0.5 mm
11:44 AM 55.7°F13.2°C 83.1°F28.4°C - 20.7 mph WNW33.3 kmh WNW 23.7 mph38.1 kmh 29.93 in1013.5 mb 0.00 in0.0 mm 0.00 in0.0 mm 0.02 in0.5 mm
11:49 AM 55.5°F13.1°C 82.9°F28.3°C - 19.4 mph WNW31.2 kmh WNW 23.8 mph38.3 kmh 29.93 in1013.5 mb 0.00 in0.0 mm 0.00 in0.0 mm 0.02 in0.5 mm
11:54 AM 55.3°F12.9°C 82.6°F28.1°C - 19.4 mph WNW31.2 kmh WNW 22.8 mph36.7 kmh 29.93 in1013.5 mb 0.00 in0.0 mm 0.00 in0.0 mm 0.03 in0.8 mm
11:59 AM 55.1°F12.8°C 82.3°F27.9°C - 21.5 mph WNW34.6 kmh WNW 25.4 mph40.9 kmh 29.93 in1013.5 mb 0.00 in0.0 mm 0.00 in0.0 mm 0.03 in0.8 mm
12:04 PM 54.9°F12.7°C 82.1°F27.8°C - 20.9 mph WNW33.6 kmh WNW 23.6 mph38.0 kmh 29.93 in1013.5 mb 0.00 in0.0 mm 0.00 in0.0 mm 0.03 in0.8 mm
12:09 PM 54.7°F12.6°C 82.0°F27.8°C - 19.1 mph WNW30.7 kmh WNW 21.8 mph35.1 kmh 29.94 in1013.9 mb 0.00 in0.0 mm 0.00 in0.0 mm 0.04 in1.0 mm
12:14 PM 54.5°F12.5°C 81.6°F27.6°C - 17.9 mph WNW28.8 kmh WNW 19.9 mph32.0 kmh 29.93 in1013.5 mb 0.00 in0.0 mm 0.00 in0.0 mm 0.05 in1.3 mm
12:19 PM 54.3°F12.4°C 81.5°F27.5°C - 17.5 mph WNW28.2 kmh WNW 20.5 mph33.0 kmh 29.93 in1013.5 mb 0.00 in0.0 mm 0.00 in0.0 mm 0.05 in1.3 mm
12:24 PM 54.3°F12.4°C 81.5°F27.5°C - 26.6 mph NW42.8 kmh NW 32.1 mph51.7 kmh 29.93 in1013.5 mb 0.00 in0.0 mm 0.00 in0.0 mm 0.05 in1.3 mm
12:29 PM 53.7°F12.1°C 80.7°F27.1°C - 24.0 mph NW38.6 kmh NW 26.8 mph43.1 kmh 29.93 in1013.5 mb 0.00 in0.0 mm 0.00 in0.0 mm 0.06 in1.5 mm
12:34 PM 53.2°F11.8°C 80.3°F26.8°C - 22.0 mph NW35.4 kmh NW 25.5 mph41.0 kmh 29.93 in1013.5 mb 0.00 in0.0 mm 0.00 in0.0 mm 0.06 in1.5 mm
12:39 PM 53.2°F11.8°C 80.3°F26.8°C - 15.6 mph NW25.1 kmh NW 25.7 mph41.4 kmh 29.93 in1013.5 mb 0.00 in0.0 mm 0.00 in0.0 mm 0.06 in1.5 mm
12:44 PM 53.2°F11.8°C 80.2°F26.8°C - 23.6 mph NW38.0 kmh NW 27.3 mph43.9 kmh 29.93 in1013.5 mb 0.00 in0.0 mm 0.00 in0.0 mm 0.06 in1.5 mm
12:49 PM 53.1°F11.7°C 80.2°F26.8°C - 23.3 mph NW37.5 kmh NW 27.3 mph43.9 kmh 29.93 in1013.5 mb 0.00 in0.0 mm 0.00 in0.0 mm 0.06 in1.5 mm
12:54 PM 53.0°F11.7°C 80.1°F26.7°C - 23.6 mph NW38.0 kmh NW 26.6 mph42.8 kmh 29.93 in1013.5 mb 0.00 in0.0 mm 0.00 in0.0 mm 0.06 in1.5 mm
12:59 PM 52.8°F11.6°C 79.8°F26.6°C - 24.4 mph NW39.3 kmh NW 28.4 mph45.7 kmh 29.93 in1013.5 mb 0.00 in0.0 mm 0.00 in0.0 mm 0.06 in1.5 mm
01:04 PM 53.0°F11.7°C 80.1°F26.7°C - 25.3 mph NW40.7 kmh NW 30.6 mph49.2 kmh 29.93 in1013.5 mb 0.00 in0.0 mm 0.00 in0.0 mm 0.06 in1.5 mm
01:09 PM 52.9°F11.6°C 79.9°F26.6°C - 30.6 mph NW49.2 kmh NW 34.8 mph56.0 kmh 29.93 in1013.5 mb 0.00 in0.0 mm 0.00 in0.0 mm 0.06 in1.5 mm
01:14 PM 52.3°F11.3°C 79.2°F26.2°C - 24.4 mph NW39.3 kmh NW 28.9 mph46.5 kmh 29.93 in1013.5 mb 0.00 in0.0 mm 0.00 in0.0 mm 0.06 in1.5 mm
01:19 PM 52.1°F11.2°C 79.0°F26.1°C - 21.4 mph NW34.4 kmh NW 23.9 mph38.5 kmh 29.94 in1013.9 mb 0.00 in0.0 mm 0.00 in0.0 mm 0.06 in1.5 mm
01:24 PM 52.2°F11.2°C 79.2°F26.2°C - 23.1 mph NW37.2 kmh NW 26.3 mph42.3 kmh 29.94 in1013.9 mb 0.00 in0.0 mm 0.00 in0.0 mm 0.06 in1.5 mm
01:29 PM 51.6°F10.9°C 78.5°F25.8°C - 13.2 mph NW21.2 kmh NW 19.8 mph31.9 kmh 29.94 in1013.9 mb 0.00 in0.0 mm 0.00 in0.0 mm 0.08 in2.0 mm
01:34 PM 50.7°F10.4°C 77.5°F25.3°C - Calm Calm -- 29.94 in1013.9 mb 0.00 in0.0 mm 0.00 in0.0 mm 0.08 in2.0 mm
01:39 PM 50.5°F10.3°C 77.3°F25.2°C - Calm Calm -- 29.94 in1013.9 mb 0.00 in0.0 mm 0.00 in0.0 mm 0.08 in2.0 mm
01:44 PM 50.7°F10.4°C 77.5°F25.3°C - Calm Calm -- 29.94 in1013.9 mb 0.00 in0.0 mm 0.00 in0.0 mm 0.08 in2.0 mm
01:49 PM 51.2°F10.7°C 78.0°F25.6°C - 5.0 mph NW8.0 kmh NW 11.0 mph17.7 kmh 29.95 in1014.2 mb 0.00 in0.0 mm 0.00 in0.0 mm 0.08 in2.0 mm
01:54 PM 51.7°F10.9°C 78.6°F25.9°C - 19.1 mph NW30.7 kmh NW 21.9 mph35.2 kmh 29.95 in1014.2 mb 0.00 in0.0 mm 0.00 in0.0 mm 0.08 in2.0 mm
01:59 PM 52.0°F11.1°C 78.9°F26.1°C - 21.9 mph NW35.2 kmh NW 24.8 mph39.9 kmh 29.94 in1013.9 mb 0.00 in0.0 mm 0.00 in0.0 mm 0.08 in2.0 mm
02:04 PM 52.2°F11.2°C 79.2°F26.2°C - 20.7 mph NW33.3 kmh NW 24.0 mph38.6 kmh 29.95 in1014.2 mb 0.00 in0.0 mm 0.00 in0.0 mm 0.08 in2.0 mm
02:09 PM 52.2°F11.2°C 79.2°F26.2°C - 25.8 mph NW41.5 kmh NW 30.4 mph48.9 kmh 29.95 in1014.2 mb 0.00 in0.0 mm 0.00 in0.0 mm 0.08 in2.0 mm
02:14 PM 52.2°F11.2°C 79.2°F26.2°C - 24.7 mph NW39.8 kmh NW 28.4 mph45.7 kmh 29.95 in1014.2 mb 0.00 in0.0 mm 0.00 in0.0 mm 0.08 in2.0 mm
02:19 PM 52.0°F11.1°C 78.9°F26.1°C - 24.0 mph NW38.6 kmh NW 27.1 mph43.6 kmh 29.95 in1014.2 mb 0.00 in0.0 mm 0.00 in0.0 mm 0.08 in2.0 mm
02:24 PM 52.0°F11.1°C 78.8°F26.0°C - 22.9 mph NW36.9 kmh NW 25.4 mph40.9 kmh 29.95 in1014.2 mb 0.00 in0.0 mm 0.00 in0.0 mm 0.08 in2.0 mm
02:29 PM 52.0°F11.1°C 78.8°F26.0°C - 23.5 mph NW37.8 kmh NW 27.3 mph43.9 kmh 29.95 in1014.2 mb 0.00 in0.0 mm 0.00 in0.0 mm 0.08 in2.0 mm
02:34 PM 52.1°F11.2°C 79.0°F26.1°C - 26.6 mph NW42.8 kmh NW 30.7 mph49.4 kmh 29.95 in1014.2 mb 0.00 in0.0 mm 0.00 in0.0 mm 0.08 in2.0 mm
02:39 PM 52.0°F11.1°C 78.9°F26.1°C - 25.8 mph NNW41.5 kmh NNW 29.1 mph46.8 kmh 29.95 in1014.2 mb 0.00 in0.0 mm 0.00 in0.0 mm 0.08 in2.0 mm
02:44 PM 51.6°F10.9°C 78.5°F25.8°C - 25.8 mph NW41.5 kmh NW 30.1 mph48.4 kmh 29.96 in1014.6 mb 0.00 in0.0 mm 0.00 in0.0 mm 0.08 in2.0 mm
02:49 PM 51.3°F10.7°C 78.0°F25.6°C - 27.5 mph NW44.3 kmh NW 33.3 mph53.6 kmh 29.96 in1014.6 mb 0.00 in0.0 mm 0.00 in0.0 mm 0.08 in2.0 mm
02:54 PM 51.2°F10.7°C 77.9°F25.5°C - 28.5 mph NW45.9 kmh NW 32.9 mph52.9 kmh 29.95 in1014.2 mb 0.00 in0.0 mm 0.00 in0.0 mm 0.08 in2.0 mm
02:59 PM 51.2°F10.7°C 78.0°F25.6°C - 24.8 mph NW39.9 kmh NW 27.8 mph44.7 kmh 29.95 in1014.2 mb 0.00 in0.0 mm 0.00 in0.0 mm 0.08 in2.0 mm
03:04 PM 51.1°F10.6°C 77.9°F25.5°C - 22.1 mph NW35.6 kmh NW 27.3 mph43.9 kmh 29.96 in1014.6 mb 0.00 in0.0 mm 0.00 in0.0 mm 0.08 in2.0 mm
03:09 PM 51.1°F10.6°C 77.8°F25.4°C - 25.1 mph NW40.4 kmh NW 28.9 mph46.5 kmh 29.96 in1014.6 mb 0.00 in0.0 mm 0.00 in0.0 mm 0.08 in2.0 mm
03:14 PM 51.1°F10.6°C 77.8°F25.4°C - 25.3 mph NW40.7 kmh NW 29.0 mph46.7 kmh 29.96 in1014.6 mb 0.00 in0.0 mm 0.00 in0.0 mm 0.08 in2.0 mm
03:19 PM 51.1°F10.6°C 77.9°F25.5°C - 24.4 mph NW39.3 kmh NW 27.6 mph44.4 kmh 29.96 in1014.6 mb 0.00 in0.0 mm 0.00 in0.0 mm 0.08 in2.0 mm
03:24 PM 51.0°F10.6°C 77.7°F25.4°C - 24.9 mph NW40.1 kmh NW 28.4 mph45.7 kmh 29.96 in1014.6 mb 0.00 in0.0 mm 0.00 in0.0 mm 0.08 in2.0 mm
03:29 PM 51.0°F10.6°C 77.8°F25.4°C - 21.9 mph NW35.2 kmh NW 24.7 mph39.8 kmh 29.97 in1014.9 mb 0.00 in0.0 mm 0.00 in0.0 mm 0.08 in2.0 mm
03:34 PM 51.0°F10.6°C 77.7°F25.4°C - 22.6 mph NW36.4 kmh NW 25.8 mph41.5 kmh 29.97 in1014.9 mb 0.00 in0.0 mm 0.00 in0.0 mm 0.08 in2.0 mm
03:39 PM 51.0°F10.6°C 77.8°F25.4°C - 22.7 mph NW36.5 kmh NW 27.3 mph43.9 kmh 29.97 in1014.9 mb 0.00 in0.0 mm 0.00 in0.0 mm 0.08 in2.0 mm
03:44 PM 51.0°F10.6°C 77.7°F25.4°C - 25.0 mph NW40.2 kmh NW 29.6 mph47.6 kmh 29.97 in1014.9 mb 0.00 in0.0 mm 0.00 in0.0 mm 0.08 in2.0 mm
03:49 PM 51.0°F10.6°C 77.8°F25.4°C - 26.5 mph NW42.6 kmh NW 30.5 mph49.1 kmh 29.97 in1014.9 mb 0.00 in0.0 mm 0.00 in0.0 mm 0.08 in2.0 mm
03:54 PM 51.0°F10.6°C 77.8°F25.4°C - 26.4 mph NW42.5 kmh NW 30.7 mph49.4 kmh 29.97 in1014.9 mb 0.00 in0.0 mm 0.00 in0.0 mm 0.08 in2.0 mm
03:59 PM 51.0°F10.6°C 77.7°F25.4°C - 25.0 mph NW40.2 kmh NW 29.0 mph46.7 kmh 29.98 in1015.2 mb 0.00 in0.0 mm 0.00 in0.0 mm 0.08 in2.0 mm
04:04 PM 50.8°F10.4°C 77.5°F25.3°C - 26.4 mph NW42.5 kmh NW 30.5 mph49.1 kmh 29.97 in1014.9 mb 0.00 in0.0 mm 0.00 in0.0 mm 0.08 in2.0 mm
04:09 PM 50.7°F10.4°C 77.4°F25.2°C - 27.6 mph NW44.4 kmh NW 31.2 mph50.2 kmh 29.97 in1014.9 mb 0.00 in0.0 mm 0.00 in0.0 mm 0.08 in2.0 mm
04:14 PM 50.7°F10.4°C 77.5°F25.3°C - 24.7 mph NW39.8 kmh NW 28.4 mph45.7 kmh 29.98 in1015.2 mb 0.00 in0.0 mm 0.00 in0.0 mm 0.08 in2.0 mm
04:19 PM 50.4°F10.2°C 77.0°F25.0°C - 27.1 mph NW43.6 kmh NW 30.7 mph49.4 kmh 29.98 in1015.2 mb 0.00 in0.0 mm 0.00 in0.0 mm 0.08 in2.0 mm
04:24 PM 50.2°F10.1°C 76.9°F24.9°C - 23.5 mph WNW37.8 kmh WNW 27.6 mph44.4 kmh 29.98 in1015.2 mb 0.00 in0.0 mm 0.00 in0.0 mm 0.08 in2.0 mm
04:29 PM 50.0°F10.0°C 76.7°F24.8°C - 20.8 mph WNW33.5 kmh WNW 24.0 mph38.6 kmh 29.98 in1015.2 mb 0.00 in0.0 mm 0.00 in0.0 mm 0.08 in2.0 mm
04:34 PM 49.7°F9.8°C 76.4°F24.7°C - 23.4 mph WNW37.7 kmh WNW 28.5 mph45.9 kmh 29.98 in1015.2 mb 0.00 in0.0 mm 0.00 in0.0 mm 0.08 in2.0 mm
04:39 PM 49.8°F9.9°C 76.5°F24.7°C - 25.3 mph WNW40.7 kmh WNW 28.6 mph46.0 kmh 29.98 in1015.2 mb 0.00 in0.0 mm 0.00 in0.0 mm 0.08 in2.0 mm
04:44 PM 50.0°F10.0°C 76.6°F24.8°C - 22.3 mph WNW35.9 kmh WNW 26.5 mph42.6 kmh 29.99 in1015.6 mb 0.00 in0.0 mm 0.00 in0.0 mm 0.08 in2.0 mm
04:49 PM 50.0°F10.0°C 76.6°F24.8°C - 23.5 mph NW37.8 kmh NW 26.8 mph43.1 kmh 29.99 in1015.6 mb 0.00 in0.0 mm 0.00 in0.0 mm 0.08 in2.0 mm
04:54 PM 50.0°F10.0°C 76.7°F24.8°C - 26.2 mph NW42.2 kmh NW 31.8 mph51.2 kmh 29.99 in1015.6 mb 0.00 in0.0 mm 0.00 in0.0 mm 0.08 in2.0 mm
04:59 PM 49.6°F9.8°C 76.2°F24.6°C - 25.6 mph NW41.2 kmh NW 29.6 mph47.6 kmh 29.99 in1015.6 mb 0.00 in0.0 mm 0.00 in0.0 mm 0.08 in2.0 mm
05:04 PM 49.2°F9.6°C 75.7°F24.3°C - 22.9 mph NW36.9 kmh NW 25.8 mph41.5 kmh 29.99 in1015.6 mb 0.00 in0.0 mm 0.00 in0.0 mm 0.08 in2.0 mm
05:09 PM 48.8°F9.3°C 75.3°F24.1°C - 32.6 mph NW52.5 kmh NW 38.2 mph61.5 kmh 29.99 in1015.6 mb 0.00 in0.0 mm 0.00 in0.0 mm 0.08 in2.0 mm
05:14 PM 48.1°F8.9°C 74.6°F23.7°C - 21.2 mph NW34.1 kmh NW 25.0 mph40.2 kmh 29.99 in1015.6 mb 0.00 in0.0 mm 0.00 in0.0 mm 0.08 in2.0 mm
05:19 PM 47.8°F8.8°C 74.2°F23.4°C - 21.6 mph NW34.8 kmh NW 24.9 mph40.1 kmh 29.99 in1015.6 mb 0.00 in0.0 mm 0.00 in0.0 mm 0.08 in2.0 mm
05:24 PM 48.5°F9.2°C 75.0°F23.9°C - 20.6 mph NW33.2 kmh NW 23.6 mph38.0 kmh 30.00 in1015.9 mb 0.00 in0.0 mm 0.00 in0.0 mm 0.08 in2.0 mm
05:29 PM 48.8°F9.3°C 75.3°F24.1°C - 23.5 mph WNW37.8 kmh WNW 28.0 mph45.1 kmh 30.00 in1015.9 mb 0.00 in0.0 mm 0.00 in0.0 mm 0.08 in2.0 mm
05:34 PM 48.7°F9.3°C 75.2°F24.0°C - 24.4 mph NW39.3 kmh NW 27.7 mph44.6 kmh 29.99 in1015.6 mb 0.00 in0.0 mm 0.00 in0.0 mm 0.08 in2.0 mm
05:39 PM 49.0°F9.4°C 75.6°F24.2°C - 23.0 mph NW37.0 kmh NW 25.8 mph41.5 kmh 30.00 in1015.9 mb 0.00 in0.0 mm 0.00 in0.0 mm 0.08 in2.0 mm
05:44 PM 49.2°F9.6°C 75.7°F24.3°C - 24.3 mph NW39.1 kmh NW 28.2 mph45.4 kmh 30.00 in1015.9 mb 0.00 in0.0 mm 0.00 in0.0 mm 0.08 in2.0 mm
05:49 PM 49.2°F9.6°C 75.8°F24.3°C - 21.7 mph NW34.9 kmh NW 24.6 mph39.6 kmh 30.00 in1015.9 mb 0.00 in0.0 mm 0.00 in0.0 mm 0.08 in2.0 mm
05:54 PM 49.3°F9.6°C 75.9°F24.4°C - 23.7 mph NW38.1 kmh NW 27.8 mph44.7 kmh 30.00 in1015.9 mb 0.00 in0.0 mm 0.00 in0.0 mm 0.08 in2.0 mm
05:59 PM 49.5°F9.7°C 76.1°F24.5°C - 25.6 mph NW41.2 kmh NW 29.4 mph47.3 kmh 30.00 in1015.9 mb 0.00 in0.0 mm 0.00 in0.0 mm 0.08 in2.0 mm
06:04 PM 49.6°F9.8°C 76.2°F24.6°C - 24.9 mph NW40.1 kmh NW 28.7 mph46.2 kmh 30.00 in1015.9 mb 0.00 in0.0 mm 0.00 in0.0 mm 0.08 in2.0 mm
06:09 PM 49.5°F9.7°C 76.1°F24.5°C - 26.2 mph NW42.2 kmh NW 30.2 mph48.6 kmh 30.00 in1015.9 mb 0.00 in0.0 mm 0.00 in0.0 mm 0.08 in2.0 mm
06:14 PM 49.6°F9.8°C 76.2°F24.6°C - 25.8 mph NW41.5 kmh NW 29.1 mph46.8 kmh 30.00 in1015.9 mb 0.00 in0.0 mm 0.00 in0.0 mm 0.08 in2.0 mm
06:19 PM 49.5°F9.7°C 76.1°F24.5°C - 25.2 mph NW40.6 kmh NW 29.0 mph46.7 kmh 30.00 in1015.9 mb 0.00 in0.0 mm 0.00 in0.0 mm 0.08 in2.0 mm
06:24 PM 49.3°F9.6°C 75.9°F24.4°C - 23.7 mph NW38.1 kmh NW 27.5 mph44.3 kmh 30.01 in1016.3 mb 0.00 in0.0 mm 0.00 in0.0 mm 0.08 in2.0 mm
06:29 PM 49.3°F9.6°C 75.9°F24.4°C - 24.3 mph NW39.1 kmh NW 28.3 mph45.5 kmh 30.00 in1015.9 mb 0.00 in0.0 mm 0.00 in0.0 mm 0.08 in2.0 mm
06:34 PM 49.2°F9.6°C 75.8°F24.3°C - 24.6 mph NW39.6 kmh NW 28.1 mph45.2 kmh 30.01 in1016.3 mb 0.00 in0.0 mm 0.00 in0.0 mm 0.08 in2.0 mm
06:39 PM 49.2°F9.6°C 75.8°F24.3°C - 21.6 mph NW34.8 kmh NW 25.3 mph40.7 kmh 30.01 in1016.3 mb 0.00 in0.0 mm 0.00 in0.0 mm 0.08 in2.0 mm
06:44 PM 49.2°F9.6°C 75.8°F24.3°C - 23.1 mph NW37.2 kmh NW 27.0 mph43.5 kmh 30.00 in1015.9 mb 0.00 in0.0 mm 0.00 in0.0 mm 0.08 in2.0 mm
06:49 PM 49.2°F9.6°C 75.8°F24.3°C - 23.0 mph NW37.0 kmh NW 26.1 mph42.0 kmh 30.01 in1016.3 mb 0.00 in0.0 mm 0.00 in0.0 mm 0.08 in2.0 mm
06:54 PM 49.0°F9.4°C 75.6°F24.2°C - 19.8 mph NW31.9 kmh NW 22.7 mph36.5 kmh 30.01 in1016.3 mb 0.00 in0.0 mm 0.00 in0.0 mm 0.08 in2.0 mm
06:59 PM 49.0°F9.4°C 75.6°F24.2°C - 19.7 mph NW31.7 kmh NW 22.1 mph35.6 kmh 30.01 in1016.3 mb 0.00 in0.0 mm 0.00 in0.0 mm 0.08 in2.0 mm
07:04 PM 48.8°F9.3°C 75.2°F24.0°C - 17.9 mph WNW28.8 kmh WNW 20.8 mph33.5 kmh 30.02 in1016.6 mb 0.00 in0.0 mm 0.00 in0.0 mm 0.08 in2.0 mm
07:09 PM 48.7°F9.3°C 75.2°F24.0°C - 20.8 mph NW33.5 kmh NW 25.3 mph40.7 kmh 30.01 in1016.3 mb 0.00 in0.0 mm 0.00 in0.0 mm 0.08 in2.0 mm
07:14 PM 48.7°F9.3°C 75.2°F24.0°C - 21.3 mph NW34.3 kmh NW 24.5 mph39.4 kmh 30.01 in1016.3 mb 0.00 in0.0 mm 0.00 in0.0 mm 0.08 in2.0 mm
07:19 PM 48.6°F9.2°C 75.1°F23.9°C - 19.0 mph WNW30.6 kmh WNW 21.7 mph34.9 kmh 30.01 in1016.3 mb 0.00 in0.0 mm 0.00 in0.0 mm 0.08 in2.0 mm
07:24 PM 48.5°F9.2°C 75.0°F23.9°C - 23.2 mph NW37.3 kmh NW 28.2 mph45.4 kmh 30.02 in1016.6 mb 0.00 in0.0 mm 0.00 in0.0 mm 0.08 in2.0 mm
07:29 PM 48.6°F9.2°C 75.1°F23.9°C - 20.9 mph NW33.6 kmh NW 24.1 mph38.8 kmh 30.02 in1016.6 mb 0.00 in0.0 mm 0.00 in0.0 mm 0.08 in2.0 mm
07:34 PM 48.8°F9.3°C 75.3°F24.1°C - 19.1 mph WNW30.7 kmh WNW 22.2 mph35.7 kmh 30.01 in1016.3 mb 0.00 in0.0 mm 0.00 in0.0 mm 0.08 in2.0 mm
07:39 PM 48.7°F9.3°C 75.2°F24.0°C - 16.4 mph NW26.4 kmh NW 19.2 mph30.9 kmh 30.01 in1016.3 mb 0.00 in0.0 mm 0.00 in0.0 mm 0.08 in2.0 mm
07:44 PM 48.7°F9.3°C 75.2°F24.0°C - 17.8 mph NW28.6 kmh NW 19.8 mph31.9 kmh 30.01 in1016.3 mb 0.00 in0.0 mm 0.00 in0.0 mm 0.08 in2.0 mm
07:49 PM 48.8°F9.3°C 75.3°F24.1°C - 20.1 mph NW32.3 kmh NW 24.0 mph38.6 kmh 30.01 in1016.3 mb 0.00 in0.0 mm 0.00 in0.0 mm 0.08 in2.0 mm
07:54 PM 49.1°F9.5°C 75.7°F24.3°C - 25.6 mph WNW41.2 kmh WNW 31.2 mph50.2 kmh 30.01 in1016.3 mb 0.00 in0.0 mm 0.00 in0.0 mm 0.08 in2.0 mm
07:59 PM 49.0°F9.4°C 75.6°F24.2°C - 29.3 mph NW47.2 kmh NW 34.0 mph54.7 kmh 30.00 in1015.9 mb 0.00 in0.0 mm 0.00 in0.0 mm 0.08 in2.0 mm
08:04 PM 48.7°F9.3°C 75.2°F24.0°C - 22.8 mph WNW36.7 kmh WNW 25.5 mph41.0 kmh 30.01 in1016.3 mb 0.00 in0.0 mm 0.00 in0.0 mm 0.08 in2.0 mm
08:09 PM 48.3°F9.1°C 74.8°F23.8°C - 17.8 mph WNW28.6 kmh WNW 19.8 mph31.9 kmh 30.01 in1016.3 mb 0.00 in0.0 mm 0.00 in0.0 mm 0.08 in2.0 mm
08:14 PM 48.2°F9.0°C 74.7°F23.7°C - 17.7 mph WNW28.5 kmh WNW 21.2 mph34.1 kmh 30.01 in1016.3 mb 0.00 in0.0 mm 0.00 in0.0 mm 0.08 in2.0 mm
08:19 PM 48.2°F9.0°C 74.7°F23.7°C - 19.4 mph NW31.2 kmh NW 22.9 mph36.9 kmh 30.01 in1016.3 mb 0.00 in0.0 mm 0.00 in0.0 mm 0.08 in2.0 mm
08:24 PM 48.1°F8.9°C 74.6°F23.7°C - 21.3 mph NW34.3 kmh NW 25.5 mph41.0 kmh 30.01 in1016.3 mb 0.00 in0.0 mm 0.00 in0.0 mm 0.08 in2.0 mm
08:29 PM 48.2°F9.0°C 74.7°F23.7°C - 17.5 mph NW28.2 kmh NW 20.9 mph33.6 kmh 30.01 in1016.3 mb 0.00 in0.0 mm 0.00 in0.0 mm 0.08 in2.0 mm
08:34 PM 48.2°F9.0°C 74.7°F23.7°C - 15.4 mph NW24.8 kmh NW 17.9 mph28.8 kmh 30.01 in1016.3 mb 0.00 in0.0 mm 0.00 in0.0 mm 0.08 in2.0 mm
08:39 PM 48.2°F9.0°C 74.7°F23.7°C - 16.9 mph WNW27.2 kmh WNW 19.5 mph31.4 kmh 30.01 in1016.3 mb 0.00 in0.0 mm 0.00 in0.0 mm 0.08 in2.0 mm
08:44 PM 48.5°F9.2°C 75.0°F23.9°C - 18.1 mph WNW29.1 kmh WNW 21.1 mph34.0 kmh 30.01 in1016.3 mb 0.00 in0.0 mm 0.00 in0.0 mm 0.08 in2.0 mm
08:49 PM 48.7°F9.3°C 75.2°F24.0°C - 18.5 mph WNW29.8 kmh WNW 21.4 mph34.4 kmh 30.01 in1016.3 mb 0.00 in0.0 mm 0.00 in0.0 mm 0.08 in2.0 mm
08:54 PM 48.6°F9.2°C 75.1°F23.9°C - 17.3 mph NW27.8 kmh NW 21.2 mph34.1 kmh 30.02 in1016.6 mb 0.00 in0.0 mm 0.00 in0.0 mm 0.08 in2.0 mm
08:59 PM 48.1°F8.9°C 74.6°F23.7°C - 1.2 mph NW1.9 kmh NW 9.4 mph15.1 kmh 30.01 in1016.3 mb 0.00 in0.0 mm 0.00 in0.0 mm 0.09 in2.3 mm
09:04 PM 47.7°F8.7°C 74.1°F23.4°C - 0.1 mph NW0.2 kmh NW 1.2 mph1.9 kmh 30.01 in1016.3 mb 0.00 in0.0 mm 0.00 in0.0 mm 0.09 in2.3 mm
09:09 PM 47.7°F8.7°C 74.1°F23.4°C - Calm Calm -- 30.01 in1016.3 mb 0.00 in0.0 mm 0.00 in0.0 mm 0.09 in2.3 mm
09:14 PM 47.8°F8.8°C 74.2°F23.4°C - Calm Calm -- 30.01 in1016.3 mb 0.00 in0.0 mm 0.00 in0.0 mm 0.10 in2.5 mm
09:19 PM 48.0°F8.9°C 74.3°F23.5°C - Calm Calm -- 30.01 in1016.3 mb 0.00 in0.0 mm 0.00 in0.0 mm 0.10 in2.5 mm
09:24 PM 47.8°F8.8°C 74.2°F23.4°C - Calm Calm -- 30.01 in1016.3 mb 0.00 in0.0 mm 0.00 in0.0 mm 0.10 in2.5 mm
09:29 PM 47.7°F8.7°C 74.1°F23.4°C - Calm Calm -- 30.01 in1016.3 mb 0.00 in0.0 mm 0.00 in0.0 mm 0.10 in2.5 mm
09:34 PM 47.8°F8.8°C 74.2°F23.4°C - Calm Calm -- 30.01 in1016.3 mb 0.00 in0.0 mm 0.00 in0.0 mm 0.10 in2.5 mm
09:39 PM 47.8°F8.8°C 74.2°F23.4°C - Calm Calm -- 30.01 in1016.3 mb 0.00 in0.0 mm 0.00 in0.0 mm 0.10 in2.5 mm
09:44 PM 47.7°F8.7°C 74.1°F23.4°C - Calm Calm -- 30.01 in1016.3 mb 0.00 in0.0 mm 0.00 in0.0 mm 0.10 in2.5 mm
09:49 PM 47.5°F8.6°C 73.9°F23.3°C - Calm Calm -- 30.01 in1016.3 mb 0.00 in0.0 mm 0.00 in0.0 mm 0.10 in2.5 mm
09:54 PM 47.3°F8.5°C 73.7°F23.2°C - Calm Calm -- 30.00 in1015.9 mb 0.00 in0.0 mm 0.00 in0.0 mm 0.10 in2.5 mm
09:59 PM 47.2°F8.4°C 73.5°F23.1°C - Calm Calm -- 30.01 in1016.3 mb 0.00 in0.0 mm 0.00 in0.0 mm 0.10 in2.5 mm
10:04 PM 47.5°F8.6°C 73.9°F23.3°C - Calm Calm -- 30.00 in1015.9 mb 0.00 in0.0 mm 0.00 in0.0 mm 0.10 in2.5 mm
10:09 PM 47.8°F8.8°C 74.2°F23.4°C - Calm Calm -- 30.00 in1015.9 mb 0.00 in0.0 mm 0.00 in0.0 mm 0.10 in2.5 mm
10:14 PM 47.7°F8.7°C 74.1°F23.4°C - Calm Calm -- 30.01 in1016.3 mb 0.00 in0.0 mm 0.00 in0.0 mm 0.10 in2.5 mm
10:19 PM 47.8°F8.8°C 74.2°F23.4°C - Calm Calm -- 30.01 in1016.3 mb 0.00 in0.0 mm 0.00 in0.0 mm 0.10 in2.5 mm
10:24 PM 47.3°F8.5°C 73.7°F23.2°C - Calm Calm -- 30.00 in1015.9 mb 0.00 in0.0 mm 0.00 in0.0 mm 0.10 in2.5 mm
10:29 PM 46.6°F8.1°C 72.9°F22.7°C - Calm Calm -- 30.01 in1016.3 mb 0.00 in0.0 mm 0.00 in0.0 mm 0.10 in2.5 mm
10:34 PM 46.6°F8.1°C 72.9°F22.7°C - Calm Calm -- 30.01 in1016.3 mb 0.00 in0.0 mm 0.00 in0.0 mm 0.10 in2.5 mm
10:39 PM 46.7°F8.2°C 73.0°F22.8°C - Calm Calm -- 30.00 in1015.9 mb 0.00 in0.0 mm 0.00 in0.0 mm 0.10 in2.5 mm
10:44 PM 46.7°F8.2°C 73.0°F22.8°C - Calm Calm -- 30.00 in1015.9 mb 0.00 in0.0 mm 0.00 in0.0 mm 0.10 in2.5 mm
10:49 PM 46.7°F8.2°C 73.0°F22.8°C - Calm Calm -- 30.00 in1015.9 mb 0.00 in0.0 mm 0.00 in0.0 mm 0.10 in2.5 mm
10:54 PM 46.7°F8.2°C 73.0°F22.8°C - Calm Calm -- 30.01 in1016.3 mb 0.00 in0.0 mm 0.00 in0.0 mm 0.10 in2.5 mm
10:59 PM 46.6°F8.1°C 72.9°F22.7°C - Calm Calm -- 30.01 in1016.3 mb 0.00 in0.0 mm 0.00 in0.0 mm 0.10 in2.5 mm
11:04 PM 46.6°F8.1°C 72.9°F22.7°C - Calm Calm -- 30.01 in1016.3 mb 0.00 in0.0 mm 0.00 in0.0 mm 0.10 in2.5 mm
11:09 PM 46.8°F8.2°C 73.1°F22.8°C - Calm Calm -- 30.00 in1015.9 mb 0.00 in0.0 mm 0.00 in0.0 mm 0.10 in2.5 mm
11:14 PM 47.0°F8.3°C 73.3°F22.9°C - Calm Calm -- 30.00 in1015.9 mb 0.00 in0.0 mm 0.00 in0.0 mm 0.10 in2.5 mm
11:19 PM 46.9°F8.3°C 73.2°F22.9°C - Calm Calm -- 30.00 in1015.9 mb 0.00 in0.0 mm 0.00 in0.0 mm 0.10 in2.5 mm
11:24 PM 46.8°F8.2°C 73.1°F22.8°C - Calm Calm -- 30.00 in1015.9 mb 0.00 in0.0 mm 0.00 in0.0 mm 0.10 in2.5 mm
11:29 PM 46.5°F8.1°C 72.8°F22.7°C - Calm Calm -- 30.00 in1015.9 mb 0.00 in0.0 mm 0.00 in0.0 mm 0.10 in2.5 mm
11:34 PM 45.8°F7.7°C 72.0°F22.2°C - Calm Calm -- 30.00 in1015.9 mb 0.00 in0.0 mm 0.00 in0.0 mm 0.10 in2.5 mm
11:39 PM 45.2°F7.3°C 71.3°F21.8°C - Calm Calm -- 30.00 in1015.9 mb 0.00 in0.0 mm 0.00 in0.0 mm 0.10 in2.5 mm
11:44 PM 45.1°F7.3°C 71.2°F21.8°C - Calm Calm -- 30.00 in1015.9 mb 0.00 in0.0 mm 0.00 in0.0 mm 0.10 in2.5 mm
11:49 PM 45.5°F7.5°C 71.5°F21.9°C - Calm Calm -- 30.00 in1015.9 mb 0.00 in0.0 mm 0.00 in0.0 mm 0.10 in2.5 mm
11:54 PM 46.2°F7.9°C 72.4°F22.4°C - Calm Calm -- 30.00 in1015.9 mb 0.00 in0.0 mm 0.00 in0.0 mm 0.10 in2.5 mm